Time;durP1;ratioP1;P1;durP2;ratioP2;P2;SDS_P1;SDS_P2;PMS_P1;PMS_P2;Temp;Humidity;BMP_temperature;BMP_pressure;BME280_temperature;BME280_humidity;BME280_pressure;Samples;Min_cycle;Max_cycle;Signal;HPM_P1;HPM_P2
2023/07/09 00:02:09;;;;;;;;;;;23.30;70.40;;;;;;5085054;28;19986;-43
2023/07/09 00:04:35;;;;;;;;;;;23.30;70.50;;;;;;5072781;28;20364;-43
2023/07/09 00:07:05;;;;;;;;;;;23.30;70.40;;;;;;5066679;28;19929;-43
2023/07/09 00:09:32;;;;;;;;;;;23.30;70.50;;;;;;5075762;28;19932;-44
2023/07/09 00:11:59;;;;;;;;;;;23.20;70.60;;;;;;5069551;28;19933;-44
2023/07/09 00:14:25;;;;;;;;;;;23.20;70.50;;;;;;5067967;28;20296;-44
2023/07/09 00:16:54;;;;;;;;;;;23.20;70.60;;;;;;5067417;28;19928;-42
2023/07/09 00:19:23;;;;;;;;;;;23.10;70.50;;;;;;5072188;28;19977;-44
2023/07/09 00:21:53;;;;;;;;;;;23.10;70.60;;;;;;5104287;27;19931;-43
2023/07/09 00:24:19;;;;;;;;;;;23.00;70.70;;;;;;5071323;28;19932;-43
2023/07/09 00:26:48;;;;;;;;;;;23.00;71.00;;;;;;5063961;28;20136;-43
2023/07/09 00:29:14;;;;;;;;;;;22.90;70.90;;;;;;5078631;28;19924;-43
2023/07/09 00:31:41;;;;;;;;;;;22.90;71.00;;;;;;5104612;28;20458;-43
2023/07/09 00:34:12;;;;;;;;;;;22.90;71.10;;;;;;5071718;28;19928;-44
2023/07/09 00:36:39;;;;;;;;;;;22.80;71.20;;;;;;5097618;28;19936;-45
2023/07/09 00:39:06;;;;;;;;;;;22.80;71.30;;;;;;5080899;28;19929;-44
2023/07/09 00:41:33;;;;;;;;;;;22.80;71.40;;;;;;5069570;28;19933;-44
2023/07/09 00:44:00;;;;;;;;;;;22.70;71.40;;;;;;5088446;28;20338;-43
2023/07/09 00:46:45;;;;;;;;;;;22.70;71.60;;;;;;5070970;28;19928;-43
2023/07/09 00:49:16;;;;;;;;;;;22.60;71.40;;;;;;5070654;28;19932;-44
2023/07/09 00:51:45;;;;;;;;;;;22.60;71.80;;;;;;5066714;28;19936;-43
2023/07/09 00:54:14;;;;;;;;;;;22.50;72.10;;;;;;5060301;28;19929;-44
2023/07/09 00:56:41;;;;;;;;;;;22.50;71.90;;;;;;5070898;28;19971;-43
2023/07/09 00:59:08;;;;;;;;;;;22.40;71.90;;;;;;5088555;28;19979;-43
2023/07/09 01:01:35;;;;;;;;;;;22.40;72.10;;;;;;5074004;28;19928;-43
2023/07/09 01:04:01;;;;;;;;;;;22.40;72.20;;;;;;5078939;28;19931;-43
2023/07/09 01:06:32;;;;;;;;;;;22.30;72.00;;;;;;5076299;28;19924;-44
2023/07/09 01:08:58;;;;;;;;;;;22.30;72.50;;;;;;5080973;28;20455;-43
2023/07/09 01:11:25;;;;;;;;;;;22.20;72.20;;;;;;5066107;28;19970;-44
2023/07/09 01:13:52;;;;;;;;;;;22.20;72.40;;;;;;5069237;28;19924;-43
2023/07/09 01:16:19;;;;;;;;;;;22.20;72.50;;;;;;5070623;28;20352;-44
2023/07/09 01:18:45;;;;;;;;;;;22.10;72.50;;;;;;5073771;28;19931;-43
2023/07/09 01:21:16;;;;;;;;;;;22.10;73.40;;;;;;5103945;28;19934;-44
2023/07/09 01:23:44;;;;;;;;;;;22.00;73.40;;;;;;5084699;28;19925;-44
2023/07/09 01:26:11;;;;;;;;;;;22.00;72.80;;;;;;5083150;28;20343;-44
2023/07/09 01:28:37;;;;;;;;;;;22.00;73.10;;;;;;5073063;28;19963;-44
2023/07/09 01:31:04;;;;;;;;;;;21.90;73.10;;;;;;5080376;28;20311;-43
2023/07/09 01:33:31;;;;;;;;;;;21.90;73.40;;;;;;5070029;28;19924;-44
2023/07/09 01:36:00;;;;;;;;;;;21.90;73.40;;;;;;5071741;28;20277;-43
2023/07/09 01:38:30;;;;;;;;;;;21.80;73.40;;;;;;5087769;28;19924;-44
2023/07/09 01:40:56;;;;;;;;;;;21.80;73.70;;;;;;5105932;28;19963;-44
2023/07/09 01:43:24;;;;;;;;;;;21.70;73.70;;;;;;5076671;28;20403;-43
2023/07/09 01:45:51;;;;;;;;;;;21.70;73.60;;;;;;5070322;28;19928;-43
2023/07/09 01:48:17;;;;;;;;;;;21.70;73.80;;;;;;5075703;28;19924;-44
2023/07/09 01:50:44;;;;;;;;;;;21.60;73.70;;;;;;5074539;28;19924;-43
2023/07/09 01:53:11;;;;;;;;;;;21.60;73.90;;;;;;5081580;28;19947;-43
2023/07/09 01:55:39;;;;;;;;;;;21.50;73.80;;;;;;5083527;28;19935;-43
2023/07/09 01:58:06;;;;;;;;;;;21.50;74.20;;;;;;5093496;28;19996;-43
2023/07/09 02:00:34;;;;;;;;;;;21.50;74.10;;;;;;5112788;27;20018;-43
2023/07/09 02:03:02;;;;;;;;;;;21.50;74.00;;;;;;5094388;28;19931;-44
2023/07/09 02:05:30;;;;;;;;;;;21.40;74.20;;;;;;5091978;28;20019;-42
2023/07/09 02:07:57;;;;;;;;;;;21.40;74.10;;;;;;5072384;28;19924;-43
2023/07/09 02:10:24;;;;;;;;;;;21.40;74.30;;;;;;5063244;28;19999;-43
2023/07/09 02:12:52;;;;;;;;;;;21.40;74.30;;;;;;5099374;27;19931;-43
2023/07/09 02:15:19;;;;;;;;;;;21.30;74.30;;;;;;5086371;28;20360;-44
2023/07/09 02:17:45;;;;;;;;;;;21.30;74.50;;;;;;5096319;27;19925;-44
2023/07/09 02:20:12;;;;;;;;;;;21.20;74.40;;;;;;5059327;28;19977;-43
2023/07/09 02:22:40;;;;;;;;;;;21.20;74.60;;;;;;5073923;28;20013;-43
2023/07/09 02:25:07;;;;;;;;;;;21.20;74.80;;;;;;5071587;28;19924;-43
2023/07/09 02:27:33;;;;;;;;;;;21.20;74.80;;;;;;5071842;28;19924;-43
2023/07/09 02:30:02;;;;;;;;;;;21.10;74.60;;;;;;5069597;28;19978;-44
2023/07/09 02:32:29;;;;;;;;;;;21.10;74.80;;;;;;5067091;28;19928;-44
2023/07/09 02:34:55;;;;;;;;;;;21.00;74.80;;;;;;5080259;28;20437;-44
2023/07/09 02:37:23;;;;;;;;;;;21.00;75.00;;;;;;5090450;28;20438;-45
2023/07/09 02:39:49;;;;;;;;;;;21.00;75.00;;;;;;5070572;28;19970;-44
2023/07/09 02:42:16;;;;;;;;;;;21.00;75.20;;;;;;5072767;28;19928;-44
2023/07/09 02:44:43;;;;;;;;;;;21.00;75.10;;;;;;5072612;28;19925;-44
2023/07/09 02:47:11;;;;;;;;;;;20.90;75.10;;;;;;5074839;28;20437;-44
2023/07/09 02:49:38;;;;;;;;;;;20.90;75.30;;;;;;5072306;28;20026;-44
2023/07/09 02:52:05;;;;;;;;;;;20.90;75.40;;;;;;5074173;28;19924;-44
2023/07/09 02:54:32;;;;;;;;;;;20.90;75.30;;;;;;5077635;28;19931;-45
2023/07/09 02:56:58;;;;;;;;;;;20.80;75.50;;;;;;5083561;28;19978;-43
2023/07/09 02:59:27;;;;;;;;;;;20.80;75.40;;;;;;5073433;28;19924;-44
2023/07/09 03:01:54;;;;;;;;;;;20.80;75.60;;;;;;5105826;27;20406;-43
2023/07/09 03:04:22;;;;;;;;;;;20.80;76.10;;;;;;5075089;28;19930;-44
2023/07/09 03:06:49;;;;;;;;;;;20.70;75.50;;;;;;5082131;28;19971;-44
2023/07/09 03:09:15;;;;;;;;;;;20.70;75.70;;;;;;5066697;28;19947;-43
2023/07/09 03:11:42;;;;;;;;;;;20.70;75.60;;;;;;5063908;28;20027;-43
2023/07/09 03:14:09;;;;;;;;;;;20.60;75.90;;;;;;5057446;28;19936;-44
2023/07/09 03:16:36;;;;;;;;;;;20.70;75.90;;;;;;5120999;27;19968;-43
2023/07/09 03:19:03;;;;;;;;;;;20.60;75.80;;;;;;5072980;28;19928;-43
2023/07/09 03:21:31;;;;;;;;;;;20.60;76.10;;;;;;5072788;28;20023;-43
2023/07/09 03:23:57;;;;;;;;;;;20.60;76.10;;;;;;5070567;28;19924;-42
2023/07/09 03:26:25;;;;;;;;;;;20.60;76.10;;;;;;5087705;28;20406;-44
2023/07/09 03:28:51;;;;;;;;;;;20.50;76.10;;;;;;5071530;28;20440;-43
2023/07/09 03:31:18;;;;;;;;;;;20.50;76.40;;;;;;5068198;28;19932;-43
2023/07/09 03:33:46;;;;;;;;;;;20.50;76.40;;;;;;5072005;28;19939;-43
2023/07/09 03:36:13;;;;;;;;;;;20.50;76.90;;;;;;5070300;28;19932;-44
2023/07/09 03:38:41;;;;;;;;;;;20.50;77.00;;;;;;5063869;28;19924;-43
2023/07/09 03:41:08;;;;;;;;;;;20.50;76.80;;;;;;5057003;28;19957;-43
2023/07/09 03:43:34;;;;;;;;;;;20.50;77.10;;;;;;5080872;28;20348;-43
2023/07/09 03:46:01;;;;;;;;;;;20.50;78.10;;;;;;5072568;28;19928;-44
2023/07/09 03:48:28;;;;;;;;;;;20.40;77.50;;;;;;5071568;28;19928;-43
2023/07/09 03:50:55;;;;;;;;;;;20.50;77.50;;;;;;5077155;28;20017;-44
2023/07/09 03:53:21;;;;;;;;;;;20.40;77.70;;;;;;5072773;28;19929;-44
2023/07/09 03:55:52;;;;;;;;;;;20.40;77.80;;;;;;5080540;28;19928;-43
2023/07/09 03:58:18;;;;;;;;;;;20.40;77.80;;;;;;5053867;28;20042;-43
2023/07/09 04:00:45;;;;;;;;;;;20.40;78.10;;;;;;5070761;28;19989;-43
2023/07/09 04:03:12;;;;;;;;;;;20.40;77.70;;;;;;5062163;28;20400;-43
2023/07/09 04:05:38;;;;;;;;;;;20.40;79.10;;;;;;5080944;28;19932;-43
2023/07/09 04:08:05;;;;;;;;;;;20.50;78.50;;;;;;5104459;28;19924;-42
2023/07/09 04:10:32;;;;;;;;;;;20.50;78.40;;;;;;5087164;28;19930;-44
2023/07/09 04:13:00;;;;;;;;;;;20.50;78.30;;;;;;5072664;28;19933;-43
2023/07/09 04:15:27;;;;;;;;;;;20.50;78.30;;;;;;5079682;28;20350;-43
2023/07/09 04:17:54;;;;;;;;;;;20.50;78.50;;;;;;5076845;28;19924;-43
2023/07/09 04:20:21;;;;;;;;;;;20.60;79.20;;;;;;5083994;28;19924;-43
2023/07/09 04:22:47;;;;;;;;;;;20.60;79.10;;;;;;5072397;28;19931;-42
2023/07/09 04:25:14;;;;;;;;;;;20.60;79.10;;;;;;5069668;28;19977;-44
2023/07/09 04:27:41;;;;;;;;;;;20.60;80.10;;;;;;5071886;28;20371;-43
2023/07/09 04:30:10;;;;;;;;;;;20.60;80.30;;;;;;5075755;28;19930;-44
2023/07/09 04:32:37;;;;;;;;;;;20.70;80.50;;;;;;5070984;28;19928;-43
2023/07/09 04:35:05;;;;;;;;;;;20.70;80.80;;;;;;5071620;28;19924;-43
2023/07/09 04:37:32;;;;;;;;;;;20.70;81.10;;;;;;5057559;28;19971;-43
2023/07/09 04:39:58;;;;;;;;;;;20.70;82.00;;;;;;5059902;28;20429;-44
2023/07/09 04:42:25;;;;;;;;;;;20.70;81.40;;;;;;5067119;28;20334;-43
2023/07/09 04:44:52;;;;;;;;;;;20.80;81.90;;;;;;5068692;28;19958;-43
2023/07/09 04:47:20;;;;;;;;;;;20.80;81.40;;;;;;5079998;28;19955;-43
2023/07/09 04:49:46;;;;;;;;;;;20.90;82.60;;;;;;5059018;28;19970;-43
2023/07/09 04:52:14;;;;;;;;;;;20.90;82.60;;;;;;5069860;28;19928;-44
2023/07/09 04:54:43;;;;;;;;;;;21.00;83.00;;;;;;5079571;28;19924;-43
2023/07/09 04:57:10;;;;;;;;;;;21.00;83.30;;;;;;5072363;28;19924;-44
2023/07/09 04:59:36;;;;;;;;;;;21.10;84.40;;;;;;5072107;28;19989;-44
2023/07/09 05:02:03;;;;;;;;;;;21.20;83.40;;;;;;5080368;28;20454;-45
2023/07/09 05:04:31;;;;;;;;;;;21.30;83.60;;;;;;5072625;28;19931;-44
2023/07/09 05:06:58;;;;;;;;;;;21.40;85.70;;;;;;5070990;28;20355;-44
2023/07/09 05:09:25;;;;;;;;;;;21.40;85.30;;;;;;5075318;28;19932;-44
2023/07/09 05:11:52;;;;;;;;;;;21.50;86.10;;;;;;5064044;28;20335;-44
2023/07/09 05:14:18;;;;;;;;;;;21.60;85.10;;;;;;5067398;28;19989;-43
2023/07/09 05:16:45;;;;;;;;;;;21.70;86.80;;;;;;5071781;28;19924;-44
2023/07/09 05:19:12;;;;;;;;;;;21.80;85.60;;;;;;5082555;28;19931;-44
2023/07/09 05:21:40;;;;;;;;;;;21.90;87.50;;;;;;5078484;28;19961;-43
2023/07/09 05:24:07;;;;;;;;;;;22.00;88.60;;;;;;5071680;28;19925;-44
2023/07/09 05:26:34;;;;;;;;;;;22.10;88.80;;;;;;5068617;28;19950;-44
2023/07/09 05:29:00;;;;;;;;;;;22.10;89.00;;;;;;5069567;28;19928;-44
2023/07/09 05:31:27;;;;;;;;;;;22.20;88.80;;;;;;5079730;28;19931;-44
2023/07/09 05:33:54;;;;;;;;;;;22.30;90.00;;;;;;5071077;28;19978;-44
2023/07/09 05:36:20;;;;;;;;;;;22.30;89.00;;;;;;5076611;28;19925;-44
2023/07/09 05:38:49;;;;;;;;;;;22.30;89.60;;;;;;5071354;28;19929;-44
2023/07/09 05:41:17;;;;;;;;;;;22.40;90.60;;;;;;5094721;28;20316;-44
2023/07/09 05:43:44;;;;;;;;;;;22.50;89.60;;;;;;5072060;28;20385;-43
2023/07/09 05:46:11;;;;;;;;;;;22.50;90.50;;;;;;5075887;28;20018;-44
2023/07/09 05:48:37;;;;;;;;;;;22.50;91.00;;;;;;5073057;28;19924;-44
2023/07/09 05:51:04;;;;;;;;;;;22.60;90.60;;;;;;5070984;28;20273;-44
2023/07/09 05:53:31;;;;;;;;;;;22.60;90.50;;;;;;5070952;28;19972;-44
2023/07/09 05:55:59;;;;;;;;;;;22.70;90.60;;;;;;5070312;28;20480;-45
2023/07/09 05:58:26;;;;;;;;;;;22.70;90.50;;;;;;5056027;28;19932;-44
2023/07/09 06:00:53;;;;;;;;;;;22.80;91.10;;;;;;5080994;28;19924;-44
2023/07/09 06:03:20;;;;;;;;;;;22.80;90.90;;;;;;5075343;28;19925;-44
2023/07/09 06:05:49;;;;;;;;;;;22.90;90.70;;;;;;5053912;28;19925;-44
2023/07/09 06:08:16;;;;;;;;;;;22.90;91.40;;;;;;5068133;28;19924;-43
2023/07/09 06:10:50;;;;;;;;;;;23.00;90.50;;;;;;5070467;28;19924;-44
2023/07/09 06:13:20;;;;;;;;;;;23.10;91.00;;;;;;5072632;28;20245;-44
2023/07/09 06:15:47;;;;;;;;;;;23.10;91.30;;;;;;5066030;28;19993;-44
2023/07/09 06:18:14;;;;;;;;;;;23.20;91.60;;;;;;5082174;28;19955;-43
2023/07/09 06:20:41;;;;;;;;;;;23.30;91.90;;;;;;5056352;28;19927;-44
2023/07/09 06:23:08;;;;;;;;;;;23.40;91.10;;;;;;5059187;28;20303;-44
2023/07/09 06:25:34;;;;;;;;;;;23.50;91.00;;;;;;5068636;28;19960;-43
2023/07/09 06:28:01;;;;;;;;;;;23.60;91.50;;;;;;5056739;28;19929;-43
2023/07/09 06:30:29;;;;;;;;;;;23.70;91.90;;;;;;5065501;28;19932;-43
2023/07/09 06:32:56;;;;;;;;;;;23.80;91.90;;;;;;5061644;28;19924;-43
2023/07/09 06:35:22;;;;;;;;;;;23.90;91.60;;;;;;5099911;28;19925;-43
2023/07/09 06:37:49;;;;;;;;;;;24.00;91.30;;;;;;5059457;28;19936;-44
2023/07/09 06:40:16;;;;;;;;;;;24.20;91.50;;;;;;5063070;28;19970;-43
2023/07/09 06:42:43;;;;;;;;;;;24.40;91.00;;;;;;5068515;28;19931;-44
2023/07/09 06:45:10;;;;;;;;;;;24.50;90.80;;;;;;5075847;28;20361;-43
2023/07/09 06:47:38;;;;;;;;;;;24.60;90.90;;;;;;5075420;28;19923;-44
2023/07/09 06:50:05;;;;;;;;;;;24.80;91.20;;;;;;5067419;28;19928;-44
2023/07/09 06:52:32;;;;;;;;;;;24.90;90.80;;;;;;5054746;28;19925;-44
2023/07/09 06:54:59;;;;;;;;;;;24.90;90.60;;;;;;5073003;28;19937;-43
2023/07/09 06:57:25;;;;;;;;;;;25.00;90.90;;;;;;5061444;28;19972;-44
2023/07/09 06:59:52;;;;;;;;;;;25.20;90.50;;;;;;5067852;28;19975;-43
2023/07/09 07:02:18;;;;;;;;;;;25.40;90.60;;;;;;5067906;28;19985;-43
2023/07/09 07:04:46;;;;;;;;;;;25.50;90.70;;;;;;5061631;28;19939;-43
2023/07/09 07:07:13;;;;;;;;;;;25.70;90.40;;;;;;5063165;28;19985;-42
2023/07/09 07:09:40;;;;;;;;;;;25.80;90.20;;;;;;5068646;28;20025;-43
2023/07/09 07:12:07;;;;;;;;;;;26.00;90.20;;;;;;5104989;27;20329;-44
2023/07/09 07:14:34;;;;;;;;;;;26.10;90.10;;;;;;5077466;28;19924;-44
2023/07/09 07:17:00;;;;;;;;;;;26.20;90.00;;;;;;5065626;28;19940;-44
2023/07/09 07:19:27;;;;;;;;;;;26.30;89.80;;;;;;5073666;28;19924;-44
2023/07/09 07:21:55;;;;;;;;;;;26.50;89.60;;;;;;5075772;28;19970;-44
2023/07/09 07:24:22;;;;;;;;;;;26.60;88.90;;;;;;5068861;28;19928;-44
2023/07/09 07:26:48;;;;;;;;;;;26.80;89.30;;;;;;5064869;28;19932;-44
2023/07/09 07:29:15;;;;;;;;;;;27.00;88.90;;;;;;5070341;28;19951;-44
2023/07/09 07:31:42;;;;;;;;;;;27.10;88.90;;;;;;5056428;28;19932;-43
2023/07/09 07:34:08;;;;;;;;;;;27.30;88.70;;;;;;5070429;28;19952;-42
2023/07/09 07:36:35;;;;;;;;;;;27.40;88.50;;;;;;5064198;28;20343;-43
2023/07/09 07:39:03;;;;;;;;;;;27.50;88.10;;;;;;5064901;28;19924;-43
2023/07/09 07:41:30;;;;;;;;;;;27.60;87.90;;;;;;5068029;28;20372;-43
2023/07/09 07:43:57;;;;;;;;;;;27.80;88.00;;;;;;5066298;28;19968;-43
2023/07/09 07:46:23;;;;;;;;;;;28.00;87.30;;;;;;5069589;28;19924;-43
2023/07/09 07:48:50;;;;;;;;;;;28.10;86.90;;;;;;5064189;28;20422;-44
2023/07/09 07:51:17;;;;;;;;;;;28.20;86.40;;;;;;5068926;28;20690;-42
2023/07/09 07:53:44;;;;;;;;;;;28.40;87.20;;;;;;5079095;28;19928;-43
2023/07/09 07:56:14;;;;;;;;;;;28.60;86.30;;;;;;5081111;28;19928;-43
2023/07/09 07:58:41;;;;;;;;;;;28.80;86.00;;;;;;5069012;28;19932;-44
2023/07/09 08:01:08;;;;;;;;;;;29.00;85.60;;;;;;5073106;28;20377;-44
2023/07/09 08:03:35;;;;;;;;;;;29.20;85.90;;;;;;5107861;27;19931;-44
2023/07/09 08:06:01;;;;;;;;;;;29.30;85.20;;;;;;5069756;28;19946;-44
2023/07/09 08:08:28;;;;;;;;;;;29.50;84.60;;;;;;5075078;28;19969;-43
2023/07/09 08:11:00;;;;;;;;;;;29.60;84.10;;;;;;5069577;28;19931;-43
2023/07/09 08:13:28;;;;;;;;;;;29.70;84.10;;;;;;5111140;27;19973;-44
2023/07/09 08:15:55;;;;;;;;;;;29.90;83.40;;;;;;5066214;28;19986;-44
2023/07/09 08:18:22;;;;;;;;;;;30.00;83.30;;;;;;5060879;28;19928;-43
2023/07/09 08:20:48;;;;;;;;;;;30.10;83.10;;;;;;5064871;28;21270;-43
2023/07/09 08:23:15;;;;;;;;;;;30.20;83.20;;;;;;5067998;28;20005;-43
2023/07/09 08:25:42;;;;;;;;;;;30.30;82.10;;;;;;5059747;28;19924;-43
2023/07/09 08:28:08;;;;;;;;;;;30.40;82.10;;;;;;5075655;28;20312;-43
2023/07/09 08:30:36;;;;;;;;;;;30.50;81.60;;;;;;5070835;28;19935;-44
2023/07/09 08:33:03;;;;;;;;;;;30.70;82.10;;;;;;5072228;28;19933;-43
2023/07/09 08:35:32;;;;;;;;;;;30.90;82.30;;;;;;5073611;28;19924;-42
2023/07/09 08:37:58;;;;;;;;;;;31.00;81.60;;;;;;5067837;28;20019;-44
2023/07/09 08:40:25;;;;;;;;;;;31.10;80.60;;;;;;5063321;28;20354;-44
2023/07/09 08:42:52;;;;;;;;;;;31.20;80.40;;;;;;5060690;28;19924;-43
2023/07/09 08:45:25;;;;;;;;;;;31.40;80.60;;;;;;5058297;28;19964;-45
2023/07/09 08:47:59;;;;;;;;;;;31.60;80.30;;;;;;5059495;28;19924;-43
2023/07/09 08:50:36;;;;;;;;;;;31.70;79.40;;;;;;5063615;28;19931;-44
2023/07/09 08:53:03;;;;;;;;;;;31.90;79.30;;;;;;5060826;28;19931;-44
2023/07/09 08:55:32;;;;;;;;;;;31.90;79.40;;;;;;5066763;28;19950;-44
2023/07/09 08:58:00;;;;;;;;;;;32.00;79.40;;;;;;5063694;28;19974;-44
2023/07/09 09:00:28;;;;;;;;;;;32.10;78.70;;;;;;5067651;28;19955;-44
2023/07/09 09:02:57;;;;;;;;;;;32.10;78.80;;;;;;5074507;28;19928;-44
2023/07/09 09:05:24;;;;;;;;;;;32.30;78.50;;;;;;5063355;28;19987;-43
2023/07/09 09:07:53;;;;;;;;;;;32.40;77.80;;;;;;5073802;28;20311;-43
2023/07/09 09:10:23;;;;;;;;;;;32.50;76.60;;;;;;5076349;28;19962;-44
2023/07/09 09:12:55;;;;;;;;;;;32.50;76.50;;;;;;5073984;28;20376;-44
2023/07/09 09:15:21;;;;;;;;;;;32.60;76.60;;;;;;5071294;28;19932;-43
2023/07/09 09:17:49;;;;;;;;;;;32.70;77.50;;;;;;5076050;28;19925;-43
2023/07/09 09:20:18;;;;;;;;;;;32.80;76.70;;;;;;5068381;28;19933;-44
2023/07/09 09:22:45;;;;;;;;;;;32.90;76.70;;;;;;5067802;28;20388;-44
2023/07/09 09:25:16;;;;;;;;;;;33.00;76.10;;;;;;5063098;28;19924;-44
2023/07/09 09:27:43;;;;;;;;;;;33.10;75.80;;;;;;5062822;28;20439;-44
2023/07/09 09:30:10;;;;;;;;;;;33.30;76.40;;;;;;5073677;28;19944;-44
2023/07/09 09:32:40;;;;;;;;;;;33.40;76.20;;;;;;5070903;28;20391;-44
2023/07/09 09:35:12;;;;;;;;;;;33.50;76.10;;;;;;5067547;28;19939;-44
2023/07/09 09:37:40;;;;;;;;;;;33.70;75.20;;;;;;5065253;28;19928;-43
2023/07/09 09:40:09;;;;;;;;;;;33.70;75.30;;;;;;5064257;28;19935;-44
2023/07/09 09:42:35;;;;;;;;;;;33.90;75.10;;;;;;5072040;28;19925;-44
2023/07/09 09:45:02;;;;;;;;;;;33.90;74.30;;;;;;5086327;28;19969;-44
2023/07/09 09:47:29;;;;;;;;;;;34.00;74.50;;;;;;5070437;28;19928;-42
2023/07/09 09:49:55;;;;;;;;;;;34.10;74.30;;;;;;5067526;28;19977;-44
2023/07/09 09:52:25;;;;;;;;;;;34.10;73.70;;;;;;5069688;28;19970;-44
2023/07/09 09:54:53;;;;;;;;;;;34.20;73.30;;;;;;5070463;28;19928;-44
2023/07/09 09:57:20;;;;;;;;;;;34.30;72.50;;;;;;5071457;28;19936;-44
2023/07/09 09:59:47;;;;;;;;;;;34.30;73.40;;;;;;5072509;28;19947;-43
2023/07/09 10:02:16;;;;;;;;;;;34.50;72.40;;;;;;5070001;28;19925;-44
2023/07/09 10:04:43;;;;;;;;;;;34.50;72.70;;;;;;5070638;28;19977;-43
2023/07/09 10:07:11;;;;;;;;;;;34.60;71.60;;;;;;5069297;28;19932;-44
2023/07/09 10:09:40;;;;;;;;;;;34.70;71.40;;;;;;5070658;28;19929;-44
2023/07/09 10:12:12;;;;;;;;;;;34.80;70.20;;;;;;5074381;28;19978;-43
2023/07/09 10:14:39;;;;;;;;;;;34.80;70.80;;;;;;5064867;28;19928;-44
2023/07/09 10:17:08;;;;;;;;;;;34.90;71.20;;;;;;5072730;28;19932;-44
2023/07/09 10:19:36;;;;;;;;;;;34.90;67.90;;;;;;5074595;28;19924;-44
2023/07/09 10:22:05;;;;;;;;;;;34.90;68.60;;;;;;5063638;28;20350;-44
2023/07/09 10:24:38;;;;;;;;;;;34.90;70.50;;;;;;5071626;28;19928;-44
2023/07/09 10:27:07;;;;;;;;;;;35.00;70.00;;;;;;5079801;28;19932;-44
2023/07/09 10:29:48;;;;;;;;;;;35.10;70.20;;;;;;5081591;28;19931;-44
2023/07/09 10:32:20;;;;;;;;;;;35.20;69.60;;;;;;5042227;28;19924;-43
2023/07/09 10:34:48;;;;;;;;;;;35.20;70.10;;;;;;5072971;28;20313;-44
2023/07/09 10:37:20;;;;;;;;;;;35.30;69.40;;;;;;5119652;27;19924;-43
2023/07/09 10:39:47;;;;;;;;;;;35.40;68.70;;;;;;5084943;28;19931;-44
2023/07/09 10:42:16;;;;;;;;;;;35.50;70.00;;;;;;5075700;28;19925;-44
2023/07/09 10:44:43;;;;;;;;;;;35.60;68.90;;;;;;5083553;28;19939;-44
2023/07/09 10:47:11;;;;;;;;;;;35.70;68.10;;;;;;5092028;28;19985;-44
2023/07/09 10:49:39;;;;;;;;;;;35.80;67.10;;;;;;5085357;28;20281;-44
2023/07/09 10:52:07;;;;;;;;;;;35.80;65.60;;;;;;5069309;28;19933;-44
2023/07/09 10:54:35;;;;;;;;;;;35.80;65.30;;;;;;5080950;28;20472;-44
2023/07/09 10:57:03;;;;;;;;;;;35.80;66.10;;;;;;5081891;28;20403;-44
2023/07/09 10:59:30;;;;;;;;;;;35.80;65.70;;;;;;5089239;28;19933;-44
2023/07/09 11:01:58;;;;;;;;;;;35.80;65.00;;;;;;5081260;28;19969;-44
2023/07/09 11:04:30;;;;;;;;;;;35.90;65.70;;;;;;5082307;28;19932;-44
2023/07/09 11:06:58;;;;;;;;;;;35.90;65.10;;;;;;5066450;28;19932;-44
2023/07/09 11:09:25;;;;;;;;;;;36.00;66.40;;;;;;5097812;27;19924;-43
2023/07/09 11:11:53;;;;;;;;;;;36.10;65.70;;;;;;5066908;28;19932;-43
2023/07/09 11:14:23;;;;;;;;;;;36.10;65.90;;;;;;5071672;28;19960;-44
2023/07/09 11:16:50;;;;;;;;;;;36.10;66.00;;;;;;5072771;28;19931;-45
2023/07/09 11:19:17;;;;;;;;;;;36.10;63.80;;;;;;5073407;28;19925;-43
2023/07/09 11:21:59;;;;;;;;;;;36.00;65.80;;;;;;5072032;28;19928;-45
2023/07/09 11:24:29;;;;;;;;;;;36.10;65.70;;;;;;5082248;28;19932;-42
2023/07/09 11:26:55;;;;;;;;;;;36.10;64.90;;;;;;5072407;28;19935;-44
2023/07/09 11:29:24;;;;;;;;;;;36.20;65.90;;;;;;5076526;28;19932;-44
2023/07/09 11:31:50;;;;;;;;;;;36.30;65.10;;;;;;5070144;28;19925;-45
2023/07/09 11:34:18;;;;;;;;;;;36.40;65.70;;;;;;5073145;28;19970;-44
2023/07/09 11:36:48;;;;;;;;;;;36.50;64.30;;;;;;5072441;28;19978;-44
2023/07/09 11:39:20;;;;;;;;;;;36.60;62.50;;;;;;5088572;28;20307;-44
2023/07/09 11:41:47;;;;;;;;;;;36.60;63.80;;;;;;5056394;28;19925;-44
2023/07/09 11:44:15;;;;;;;;;;;36.60;62.60;;;;;;5084209;28;19924;-44
2023/07/09 11:46:45;;;;;;;;;;;36.70;62.80;;;;;;5067505;28;20724;-44
2023/07/09 11:49:12;;;;;;;;;;;36.70;62.00;;;;;;5059919;28;20447;-45
2023/07/09 11:51:39;;;;;;;;;;;36.70;61.80;;;;;;5069703;28;19931;-44
2023/07/09 11:54:06;;;;;;;;;;;36.70;63.10;;;;;;5072203;28;19935;-44
2023/07/09 11:56:34;;;;;;;;;;;36.60;61.60;;;;;;5072901;28;19983;-45
2023/07/09 11:59:01;;;;;;;;;;;36.60;62.10;;;;;;5105317;28;19939;-44
2023/07/09 12:01:28;;;;;;;;;;;36.60;61.90;;;;;;5071734;28;19924;-44
2023/07/09 12:03:55;;;;;;;;;;;36.70;61.50;;;;;;5072252;28;20388;-44
2023/07/09 12:06:22;;;;;;;;;;;36.80;62.40;;;;;;5077222;28;19932;-45
2023/07/09 12:08:49;;;;;;;;;;;36.90;62.20;;;;;;5073226;28;20304;-45
2023/07/09 12:11:22;;;;;;;;;;;37.00;61.20;;;;;;5106485;28;19974;-44
2023/07/09 12:13:50;;;;;;;;;;;37.10;60.80;;;;;;5068289;28;19925;-44
2023/07/09 12:16:21;;;;;;;;;;;37.20;60.90;;;;;;5067184;28;20392;-43
2023/07/09 12:18:47;;;;;;;;;;;37.20;61.20;;;;;;5076252;28;19928;-44
2023/07/09 12:21:14;;;;;;;;;;;37.30;61.80;;;;;;5080843;28;19924;-44
2023/07/09 12:23:41;;;;;;;;;;;37.50;61.10;;;;;;5105429;28;20261;-44
2023/07/09 12:26:11;;;;;;;;;;;37.50;60.60;;;;;;5063307;28;19932;-44
2023/07/09 12:28:38;;;;;;;;;;;37.60;61.60;;;;;;5056767;28;19981;-43
2023/07/09 12:31:11;;;;;;;;;;;37.70;59.90;;;;;;5081461;28;19975;-43
2023/07/09 12:33:37;;;;;;;;;;;37.70;59.70;;;;;;5077674;28;20380;-44
2023/07/09 12:36:05;;;;;;;;;;;37.70;58.50;;;;;;5069706;28;19994;-42
2023/07/09 12:38:33;;;;;;;;;;;37.60;59.90;;;;;;5111970;27;19971;-45
2023/07/09 12:41:00;;;;;;;;;;;37.70;60.00;;;;;;5078537;28;19954;-44
2023/07/09 12:43:27;;;;;;;;;;;37.80;61.10;;;;;;5069197;28;20438;-44
2023/07/09 12:45:54;;;;;;;;;;;38.00;58.70;;;;;;5107972;27;19978;-45
2023/07/09 12:48:22;;;;;;;;;;;37.80;58.70;;;;;;5105042;27;19924;-45
2023/07/09 12:50:49;;;;;;;;;;;37.80;60.20;;;;;;5076720;28;20017;-45
2023/07/09 12:53:18;;;;;;;;;;;37.90;58.40;;;;;;5064161;28;19939;-44
2023/07/09 12:55:45;;;;;;;;;;;37.70;58.80;;;;;;5065490;28;19936;-44
2023/07/09 12:58:14;;;;;;;;;;;37.70;59.80;;;;;;5097083;28;20300;-45
2023/07/09 13:00:41;;;;;;;;;;;37.80;59.50;;;;;;5077857;28;19924;-44
2023/07/09 13:03:13;;;;;;;;;;;37.90;58.30;;;;;;5073110;28;20364;-44
2023/07/09 13:05:53;;;;;;;;;;;37.70;59.00;;;;;;5079537;28;20342;-43
2023/07/09 13:08:19;;;;;;;;;;;37.50;60.00;;;;;;5080512;28;20019;-45
2023/07/09 13:10:50;;;;;;;;;;;37.30;59.40;;;;;;5072027;28;19924;-45
2023/07/09 13:13:17;;;;;;;;;;;37.10;59.60;;;;;;5081991;28;19924;-44
2023/07/09 13:15:45;;;;;;;;;;;37.00;58.80;;;;;;5079179;28;19932;-43
2023/07/09 13:18:12;;;;;;;;;;;36.90;59.80;;;;;;5068408;28;19970;-45
2023/07/09 13:20:39;;;;;;;;;;;36.70;60.30;;;;;;5107412;27;19977;-45
2023/07/09 13:23:10;;;;;;;;;;;36.60;59.80;;;;;;5070513;28;19932;-44
2023/07/09 13:25:38;;;;;;;;;;;36.50;60.30;;;;;;5080149;28;19982;-45
2023/07/09 13:28:04;;;;;;;;;;;36.30;61.10;;;;;;5076836;28;19924;-44
2023/07/09 13:30:32;;;;;;;;;;;36.20;61.60;;;;;;5068994;28;20323;-45
2023/07/09 13:32:59;;;;;;;;;;;36.00;60.90;;;;;;5066187;28;19932;-45
2023/07/09 13:35:26;;;;;;;;;;;35.90;60.40;;;;;;5070008;28;19978;-44
2023/07/09 13:37:53;;;;;;;;;;;35.80;61.50;;;;;;5065072;28;20365;-44
2023/07/09 13:40:21;;;;;;;;;;;35.70;61.20;;;;;;5062760;28;19943;-44
2023/07/09 13:42:48;;;;;;;;;;;35.60;61.30;;;;;;5070247;28;20429;-44
2023/07/09 13:45:18;;;;;;;;;;;35.60;62.70;;;;;;5068583;28;19924;-44
2023/07/09 13:47:45;;;;;;;;;;;35.50;63.00;;;;;;5076913;28;19963;-45
2023/07/09 13:50:12;;;;;;;;;;;35.50;63.40;;;;;;5079981;28;20437;-44
2023/07/09 13:52:38;;;;;;;;;;;35.50;63.50;;;;;;5070158;28;19925;-44
2023/07/09 13:55:06;;;;;;;;;;;35.60;63.60;;;;;;5081118;28;19931;-44
2023/07/09 13:57:34;;;;;;;;;;;35.80;63.60;;;;;;5089597;28;19931;-43
2023/07/09 14:00:01;;;;;;;;;;;36.00;62.20;;;;;;5095972;28;19924;-44
2023/07/09 14:02:31;;;;;;;;;;;36.20;62.40;;;;;;5080597;28;19924;-44
2023/07/09 14:04:57;;;;;;;;;;;36.30;62.10;;;;;;5091440;28;20005;-44
2023/07/09 14:07:25;;;;;;;;;;;36.30;61.50;;;;;;5108577;28;19928;-45
2023/07/09 14:09:52;;;;;;;;;;;36.30;61.50;;;;;;5067610;28;19932;-44
2023/07/09 14:12:19;;;;;;;;;;;36.30;61.70;;;;;;5074514;28;20379;-43
2023/07/09 14:14:47;;;;;;;;;;;36.20;61.60;;;;;;5082547;28;19924;-45
2023/07/09 14:17:14;;;;;;;;;;;36.20;60.70;;;;;;5090809;28;20384;-45
2023/07/09 14:19:41;;;;;;;;;;;36.00;61.10;;;;;;5094963;28;19953;-45